Time;durP1;ratioP1;P1;durP2;ratioP2;P2;SDS_P1;SDS_P2;PMS_P1;PMS_P2;Temp;Humidity;BMP_temperature;BMP_pressure;BME280_temperature;BME280_humidity;BME280_pressure;Samples;Min_cycle;Max_cycle;Signal;HPM_P1;HPM_P2
2022/06/12 00:00:30;;;;;;;37.80;35.60;;;15.60;99.90;;;;;;5000862;28;20208;-80
2022/06/12 00:02:59;;;;;;;43.17;40.77;;;15.60;99.90;;;;;;5004434;28;20180;-78
2022/06/12 00:05:28;;;;;;;53.07;49.37;;;15.60;99.90;;;;;;5000059;28;20196;-79
2022/06/12 00:07:54;;;;;;;61.80;58.37;;;15.50;99.90;;;;;;4998444;28;20212;-80
2022/06/12 00:10:20;;;;;;;55.63;52.73;;;15.40;99.90;;;;;;4997175;28;20192;-80
2022/06/12 00:12:46;;;;;;;43.40;41.07;;;15.30;99.90;;;;;;4996838;28;20196;-78
2022/06/12 00:15:19;;;;;;;43.10;40.43;;;15.40;99.90;;;;;;4995501;28;20349;-78
2022/06/12 00:17:45;;;;;;;35.67;33.47;;;15.30;99.90;;;;;;4993480;28;20618;-79
2022/06/12 00:20:13;;;;;;;35.90;34.00;;;15.40;99.90;;;;;;4994053;28;20212;-79
2022/06/12 00:22:39;;;;;;;48.63;45.93;;;15.40;99.90;;;;;;4995609;28;20214;-79
2022/06/12 00:25:09;;;;;;;67.30;63.77;;;15.50;99.90;;;;;;4995279;28;20219;-79
2022/06/12 00:27:37;;;;;;;78.40;74.33;;;15.60;99.90;;;;;;4994255;28;20275;-80
2022/06/12 00:30:06;;;;;;;75.63;71.43;;;15.50;99.90;;;;;;4996985;28;20221;-80
2022/06/12 00:32:31;;;;;;;91.37;86.33;;;15.50;99.90;;;;;;4999964;28;20572;-78
2022/06/12 00:34:57;;;;;;;80.07;75.77;;;15.40;99.90;;;;;;5002370;28;20266;-78
2022/06/12 00:37:26;;;;;;;87.80;83.37;;;15.40;99.90;;;;;;5000049;28;20189;-79
2022/06/12 00:39:54;;;;;;;86.13;81.57;;;15.30;99.90;;;;;;5000166;28;20216;-79
2022/06/12 00:42:30;;;;;;;105.97;100.50;;;15.30;99.90;;;;;;4998644;28;20187;-79
2022/06/12 00:44:59;;;;;;;103.43;98.13;;;15.30;99.90;;;;;;4996629;28;20231;-79
2022/06/12 00:47:26;;;;;;;99.73;94.53;;;15.20;99.90;;;;;;4998364;28;20184;-80
2022/06/12 00:50:01;;;;;;;99.93;94.83;;;15.20;99.90;;;;;;5000139;28;20195;-81
2022/06/12 00:52:35;;;;;;;97.87;92.87;;;15.20;99.90;;;;;;4998236;28;20185;-79
2022/06/12 00:55:18;;;;;;;108.17;102.70;;;15.20;99.90;;;;;;4997192;28;20266;-82
2022/06/12 00:57:45;;;;;;;91.93;87.00;;;15.20;99.90;;;;;;4996675;28;20188;-82
2022/06/12 01:00:14;;;;;;;119.90;113.60;;;15.10;99.90;;;;;;4997467;28;20219;-79
2022/06/12 01:02:41;;;;;;;89.97;85.23;;;15.10;99.90;;;;;;4998191;28;20188;-79
2022/06/12 01:07:58;;;;;;;90.43;85.40;;;15.10;99.90;;;;;;4996455;28;20188;-82
2022/06/12 01:10:28;;;;;;;117.03;110.67;;;15.10;99.90;;;;;;5005953;28;20224;-81
2022/06/12 01:13:16;;;;;;;138.90;131.53;;;15.10;99.90;;;;;;4999698;28;20325;-82
2022/06/12 01:15:48;;;;;;;128.67;121.40;;;15.10;99.90;;;;;;4993060;28;20216;-81
2022/06/12 01:18:18;;;;;;;123.50;117.03;;;15.10;99.90;;;;;;4996302;28;20311;-82
2022/06/12 01:20:57;;;;;;;110.93;105.00;;;15.00;99.90;;;;;;4995551;28;20564;-82
2022/06/12 01:23:29;;;;;;;123.63;117.10;;;14.90;99.90;;;;;;4995311;28;20191;-81
2022/06/12 01:26:37;;;;;;;114.27;108.57;;;14.90;99.90;;;;;;4994897;28;20212;-82
2022/06/12 01:29:26;;;;;;;105.87;100.43;;;14.80;99.90;;;;;;4998247;28;20234;-81
2022/06/12 01:32:01;;;;;;;89.03;84.30;;;14.70;99.90;;;;;;5006839;28;20220;-81
2022/06/12 01:35:13;;;;;;;68.43;64.83;;;14.70;99.90;;;;;;5006547;28;20211;-81
2022/06/12 01:38:10;;;;;;;36.23;34.27;;;14.60;99.90;;;;;;4975125;28;20192;-81
2022/06/12 01:40:44;;;;;;;25.33;23.63;;;14.50;99.90;;;;;;4987689;28;20315;-81
2022/06/12 01:43:16;;;;;;;15.00;14.10;;;14.40;99.90;;;;;;5015062;28;20184;-81
2022/06/12 01:46:20;;;;;;;13.37;12.27;;;14.40;99.90;;;;;;5013515;28;20235;-81
2022/06/12 01:48:58;;;;;;;13.60;12.57;;;14.40;99.90;;;;;;5000177;28;20219;-81
2022/06/12 01:51:28;;;;;;;11.67;10.77;;;14.40;99.90;;;;;;4995505;28;20176;-82
2022/06/12 01:54:06;;;;;;;12.67;11.87;;;14.20;99.90;;;;;;4996044;28;20196;-81
2022/06/12 01:57:11;;;;;;;21.97;20.40;;;14.10;99.90;;;;;;4985271;28;20193;-81
2022/06/12 01:59:45;;;;;;;12.83;11.93;;;14.20;99.90;;;;;;4985350;28;20228;-81
2022/06/12 02:02:26;;;;;;;25.60;24.10;;;14.10;99.90;;;;;;4995688;28;20184;-81
2022/06/12 02:04:59;;;;;;;29.50;27.67;;;14.10;99.90;;;;;;4994309;28;20196;-81
2022/06/12 02:07:29;;;;;;;36.83;34.77;;;14.20;99.90;;;;;;4993140;28;20701;-80
2022/06/12 02:10:07;;;;;;;37.73;35.77;;;14.20;99.90;;;;;;4994239;28;20199;-81
2022/06/12 02:15:33;;;;;;;12.67;11.83;;;14.20;99.90;;;;;;4995215;28;20271;-81
2022/06/12 02:18:14;;;;;;;24.90;23.47;;;14.10;99.90;;;;;;4994894;28;20191;-80
2022/06/12 02:20:46;;;;;;;17.43;16.30;;;14.10;99.90;;;;;;4996677;28;20212;-81
2022/06/12 02:23:28;;;;;;;26.83;25.33;;;14.20;99.90;;;;;;4995828;28;20558;-81
2022/06/12 02:25:55;;;;;;;34.33;32.50;;;14.10;99.90;;;;;;4978354;28;20216;-80
2022/06/12 02:28:33;;;;;;;14.57;13.43;;;14.00;99.90;;;;;;4996175;28;20183;-80
2022/06/12 02:31:06;;;;;;;38.60;36.13;;;14.00;99.90;;;;;;4994920;28;20188;-81
2022/06/12 02:33:36;;;;;;;30.83;28.73;;;14.00;99.90;;;;;;4994925;28;20180;-81
2022/06/12 02:36:09;;;;;;;22.60;21.00;;;14.00;99.90;;;;;;4995380;28;20688;-80
2022/06/12 02:38:42;;;;;;;38.20;35.97;;;14.00;99.90;;;;;;4992996;28;20661;-80
2022/06/12 02:41:26;;;;;;;63.47;60.07;;;14.00;99.90;;;;;;5000652;28;20219;-79
2022/06/12 02:43:56;;;;;;;61.33;58.00;;;14.00;99.90;;;;;;5011829;28;20175;-80
2022/06/12 02:46:41;;;;;;;90.93;85.93;;;14.00;99.90;;;;;;5001460;28;20187;-80
2022/06/12 02:49:09;;;;;;;75.40;71.07;;;14.00;99.90;;;;;;5010858;28;20188;-80
2022/06/12 02:51:53;;;;;;;68.73;65.13;;;13.90;99.90;;;;;;5006249;28;20215;-80
2022/06/12 02:54:29;;;;;;;69.87;66.13;;;13.80;99.90;;;;;;4998547;28;20208;-81
2022/06/12 02:57:29;;;;;;;11.07;10.30;;;13.80;99.90;;;;;;4994698;28;20192;-81
2022/06/12 03:00:07;;;;;;;10.00;9.40;;;13.70;99.90;;;;;;5002458;28;20211;-79
2022/06/12 03:02:46;;;;;;;12.43;11.53;;;13.60;99.90;;;;;;5005677;28;20279;-80
2022/06/12 03:05:30;;;;;;;43.43;41.17;;;13.50;99.90;;;;;;4994106;28;20218;-81
2022/06/12 03:08:00;;;;;;;71.10;67.53;;;13.50;99.90;;;;;;4996929;28;20648;-78
2022/06/12 03:10:34;;;;;;;67.13;63.30;;;13.40;99.90;;;;;;5001631;28;20194;-79
2022/06/12 03:13:02;;;;;;;32.50;30.27;;;13.40;99.90;;;;;;5006495;28;20192;-80
2022/06/12 03:15:34;;;;;;;36.03;33.83;;;13.50;99.90;;;;;;4995256;28;20211;-81
2022/06/12 03:18:02;;;;;;;95.53;90.73;;;13.50;99.90;;;;;;4994717;28;20180;-81
2022/06/12 03:20:33;;;;;;;109.70;104.20;;;13.40;99.90;;;;;;4999173;28;20728;-81
2022/06/12 03:23:08;;;;;;;105.10;99.80;;;13.40;99.90;;;;;;5006770;28;20211;-81
2022/06/12 03:25:58;;;;;;;75.97;71.93;;;13.50;99.90;;;;;;5003631;28;20305;-77
2022/06/12 03:28:35;;;;;;;91.60;86.60;;;13.50;99.90;;;;;;5004903;28;20187;-80
2022/06/12 03:31:12;;;;;;;89.80;85.23;;;13.60;99.90;;;;;;4995885;28;20637;-81
2022/06/12 03:34:09;;;;;;;105.10;99.73;;;13.60;99.90;;;;;;4993813;28;20183;-79
2022/06/12 03:36:47;;;;;;;104.73;99.40;;;13.60;99.90;;;;;;4997997;28;20197;-79
2022/06/12 03:39:49;;;;;;;95.87;90.90;;;13.60;99.90;;;;;;4996838;28;20223;-80
2022/06/12 03:42:25;;;;;;;75.23;71.30;;;13.60;99.90;;;;;;4982609;28;20188;-79
2022/06/12 03:45:16;;;;;;;107.67;102.00;;;13.70;99.90;;;;;;4993629;28;20211;-79
2022/06/12 03:48:02;;;;;;;97.97;92.63;;;13.60;99.90;;;;;;4993512;28;20234;-79
2022/06/12 03:50:39;;;;;;;99.93;94.73;;;13.50;99.90;;;;;;4990294;28;20196;-79
2022/06/12 03:53:16;;;;;;;93.83;88.87;;;13.60;99.90;;;;;;4994502;28;20188;-80
2022/06/12 03:58:52;;;;;;;102.97;97.50;;;13.60;99.90;;;;;;4993133;28;20192;-79
2022/06/12 04:01:20;;;;;;;85.23;80.80;;;13.70;99.90;;;;;;4992905;28;20172;-79
2022/06/12 04:03:47;;;;;;;51.97;49.20;;;13.60;99.90;;;;;;4992665;28;20645;-79
2022/06/12 04:06:21;;;;;;;56.10;53.07;;;13.70;99.90;;;;;;4992534;28;20231;-78
2022/06/12 04:08:52;;;;;;;45.77;43.20;;;13.80;99.90;;;;;;4993837;28;20187;-78
2022/06/12 04:11:21;;;;;;;94.27;89.23;;;13.80;99.90;;;;;;4994084;28;20211;-78
2022/06/12 04:13:48;;;;;;;116.83;110.57;;;13.90;99.90;;;;;;4996198;28;20555;-78
2022/06/12 04:16:33;;;;;;;111.90;106.00;;;14.00;99.90;;;;;;4998218;28;20188;-79
2022/06/12 04:19:03;;;;;;;16.37;15.27;;;14.10;99.90;;;;;;4996059;28;20543;-80
2022/06/12 04:21:33;;;;;;;12.07;11.10;;;14.20;99.90;;;;;;4991843;28;20211;-79
2022/06/12 04:24:14;;;;;;;12.27;11.47;;;14.30;99.90;;;;;;4997575;28;20184;-80
2022/06/12 04:26:55;;;;;;;11.33;10.53;;;14.50;99.90;;;;;;4999885;28;20192;-79
2022/06/12 04:29:30;;;;;;;13.63;12.50;;;14.60;99.90;;;;;;5000517;28;20192;-80
2022/06/12 04:31:58;;;;;;;12.80;11.83;;;14.60;99.90;;;;;;4998255;28;20184;-78
2022/06/12 04:34:29;;;;;;;13.73;12.53;;;14.60;99.90;;;;;;4999649;28;20230;-79
2022/06/12 04:37:09;;;;;;;15.33;14.33;;;14.60;99.90;;;;;;4995745;28;20190;-80
2022/06/12 04:39:35;;;;;;;13.27;12.37;;;14.70;99.90;;;;;;4996282;28;20216;-82
2022/06/12 04:42:02;;;;;;;23.50;22.30;;;14.90;99.90;;;;;;4995652;28;20843;-79
2022/06/12 04:44:29;;;;;;;39.27;36.97;;;15.00;99.90;;;;;;5007757;28;20228;-79
2022/06/12 04:46:57;;;;;;;76.77;72.77;;;15.10;99.90;;;;;;5005386;28;21045;-80
2022/06/12 04:49:26;;;;;;;147.40;139.20;;;15.20;99.90;;;;;;5008723;28;20188;-80
2022/06/12 04:51:55;;;;;;;156.73;148.27;;;15.30;99.90;;;;;;5006626;28;20212;-80
2022/06/12 04:54:22;;;;;;;11.40;10.60;;;15.50;99.90;;;;;;4999891;28;20587;-80
2022/06/12 04:56:49;;;;;;;19.23;18.03;;;15.60;99.90;;;;;;4997130;28;20188;-80
2022/06/12 04:59:17;;;;;;;12.47;11.57;;;15.80;99.90;;;;;;4999883;28;20220;-80
2022/06/12 05:01:45;;;;;;;28.83;27.27;;;16.20;99.90;;;;;;4997895;28;20180;-80
2022/06/12 05:04:11;;;;;;;17.83;16.37;;;16.60;99.90;;;;;;4996986;28;20204;-80
2022/06/12 05:06:39;;;;;;;9.43;8.73;;;16.90;99.90;;;;;;4996988;28;20192;-80
2022/06/12 05:09:06;;;;;;;113.00;107.27;;;17.20;99.90;;;;;;4995721;28;20188;-79
2022/06/12 05:11:32;;;;;;;106.67;101.07;;;17.60;99.90;;;;;;4995249;28;20188;-80
2022/06/12 05:13:58;;;;;;;30.17;28.60;;;18.20;99.90;;;;;;4994674;28;20275;-80
2022/06/12 05:16:42;;;;;;;10.60;9.90;;;18.80;99.90;;;;;;4995966;28;20185;-80
2022/06/12 05:19:12;;;;;;;23.02;21.77;;;19.20;99.90;;;;;;4998917;28;20212;-82
2022/06/12 05:21:38;;;;;;;8.57;8.18;;;19.70;99.90;;;;;;4997218;28;20556;-78
2022/06/12 05:24:05;;;;;;;8.45;7.75;;;20.10;99.90;;;;;;4996356;28;20219;-81
2022/06/12 05:26:33;;;;;;;7.95;7.35;;;20.50;99.90;;;;;;4996317;28;20180;-81
2022/06/12 05:29:01;;;;;;;14.57;13.70;;;21.00;99.90;;;;;;5003226;28;20176;-79
2022/06/12 05:31:27;;;;;;;22.48;21.25;;;21.40;99.90;;;;;;5010408;28;20196;-70
2022/06/12 05:33:53;;;;;;;33.65;31.80;;;21.70;99.90;;;;;;4993608;28;20194;-71
2022/06/12 05:36:20;;;;;;;39.25;37.17;;;21.80;99.90;;;;;;4993768;28;20192;-72
2022/06/12 05:38:46;;;;;;;51.15;48.22;;;22.00;99.90;;;;;;4991569;28;20652;-72
2022/06/12 05:41:13;;;;;;;48.72;46.13;;;22.20;99.90;;;;;;4992730;28;20279;-72
2022/06/12 05:43:40;;;;;;;49.83;47.22;;;22.30;99.90;;;;;;4991366;28;20668;-72
2022/06/12 05:46:12;;;;;;;50.03;47.47;;;22.60;99.90;;;;;;4992879;28;20184;-72
2022/06/12 05:48:39;;;;;;;24.00;22.70;;;22.80;99.90;;;;;;4991557;28;20197;-72
2022/06/12 05:51:05;;;;;;;13.85;13.05;;;23.10;99.90;;;;;;4991673;28;20183;-72
2022/06/12 05:53:36;;;;;;;10.65;10.05;;;23.40;99.90;;;;;;4991042;28;20188;-72
2022/06/12 05:56:15;;;;;;;10.75;9.95;;;23.70;99.90;;;;;;4992621;28;20262;-72
2022/06/12 05:58:41;;;;;;;8.30;7.82;;;23.60;99.90;;;;;;4991850;28;20701;-72
2022/06/12 06:01:10;;;;;;;7.35;6.70;;;24.10;99.90;;;;;;4992670;28;20210;-72
2022/06/12 06:03:37;;;;;;;6.53;6.10;;;24.30;99.90;;;;;;4991024;28;20184;-72
2022/06/12 06:06:04;;;;;;;6.05;5.75;;;24.40;99.90;;;;;;4992296;28;20282;-72
2022/06/12 06:08:30;;;;;;;6.50;6.05;;;24.40;99.90;;;;;;4990809;28;20192;-71
2022/06/12 06:10:56;;;;;;;9.10;8.55;;;24.60;99.90;;;;;;4991232;28;20653;-71
2022/06/12 06:13:22;;;;;;;16.95;16.00;;;24.90;99.90;;;;;;4992133;28;20192;-71
2022/06/12 06:15:50;;;;;;;14.75;13.57;;;25.30;99.90;;;;;;4992303;28;20200;-71
2022/06/12 06:18:17;;;;;;;13.55;12.80;;;25.40;99.90;;;;;;4991721;28;20211;-71
2022/06/12 06:20:44;;;;;;;11.80;11.20;;;25.50;99.90;;;;;;4992672;28;20231;-71
2022/06/12 06:23:10;;;;;;;16.42;15.23;;;25.70;99.90;;;;;;4990847;28;20182;-71
2022/06/12 06:25:38;;;;;;;18.85;17.85;;;25.80;99.90;;;;;;4992272;28;20262;-71
2022/06/12 06:28:05;;;;;;;11.45;10.75;;;25.90;99.90;;;;;;4991400;28;20676;-71
2022/06/12 06:30:31;;;;;;;12.32;11.43;;;26.10;99.90;;;;;;4991134;28;20271;-71
2022/06/12 06:32:57;;;;;;;12.77;11.82;;;26.20;99.90;;;;;;4992263;28;20198;-71
2022/06/12 06:35:23;;;;;;;9.20;8.60;;;26.10;99.90;;;;;;4991606;28;20200;-71
2022/06/12 06:37:50;;;;;;;7.18;6.68;;;26.40;99.90;;;;;;4991428;28;20184;-71
2022/06/12 06:40:17;;;;;;;8.30;7.55;;;26.70;99.90;;;;;;4992296;28;20751;-72
2022/06/12 06:42:42;;;;;;;9.40;8.88;;;27.00;99.90;;;;;;4990775;28;20176;-71
2022/06/12 06:47:56;;;;;;;6.78;6.30;;;27.90;96.20;;;;;;4988962;28;20235;-71
2022/06/12 06:50:22;;;;;;;6.82;6.28;;;28.00;95.40;;;;;;4991636;28;20271;-70
2022/06/12 06:52:48;;;;;;;6.97;6.38;;;27.80;95.00;;;;;;4990973;28;20196;-70
2022/06/12 06:55:14;;;;;;;6.55;6.05;;;27.80;95.60;;;;;;4990500;28;20671;-71
2022/06/12 06:57:43;;;;;;;5.90;5.35;;;28.00;94.20;;;;;;4989744;28;20180;-72
2022/06/12 07:00:14;;;;;;;6.93;6.32;;;28.30;94.00;;;;;;4990006;28;20303;-71
2022/06/12 07:02:40;;;;;;;9.20;8.60;;;28.30;92.80;;;;;;4988550;28;20563;-73
2022/06/12 07:05:06;;;;;;;7.80;7.30;;;28.60;92.30;;;;;;4991172;28;20579;-70
2022/06/12 07:07:36;;;;;;;10.23;9.73;;;28.80;93.20;;;;;;4988652;28;20240;-72
2022/06/12 07:10:06;;;;;;;14.82;14.00;;;28.90;91.60;;;;;;4989341;28;20246;-71
2022/06/12 07:12:33;;;;;;;23.60;22.30;;;29.00;91.50;;;;;;4990558;28;20555;-70
2022/06/12 07:14:59;;;;;;;17.38;16.48;;;29.30;90.10;;;;;;4990013;28;20727;-70
2022/06/12 07:17:25;;;;;;;21.08;19.67;;;29.40;91.70;;;;;;4989288;28;20216;-71
2022/06/12 07:19:51;;;;;;;15.13;13.98;;;29.80;90.90;;;;;;4989839;28;20270;-71
2022/06/12 07:22:16;;;;;;;11.35;10.77;;;29.70;90.00;;;;;;4989222;28;20259;-70
2022/06/12 07:24:42;;;;;;;11.88;11.18;;;29.40;90.00;;;;;;4990204;28;20831;-66
2022/06/12 07:27:08;;;;;;;10.65;10.02;;;29.10;90.80;;;;;;4988853;28;20241;-67
2022/06/12 07:29:34;;;;;;;11.80;11.05;;;28.70;91.20;;;;;;4990901;28;20180;-67
2022/06/12 07:32:01;;;;;;;10.73;10.02;;;28.80;90.90;;;;;;4988731;28;20635;-68
2022/06/12 07:34:27;;;;;;;12.82;12.02;;;29.20;91.70;;;;;;4991006;28;20200;-67
2022/06/12 07:36:54;;;;;;;16.23;14.98;;;29.60;90.50;;;;;;4990321;28;20275;-67
2022/06/12 07:39:24;;;;;;;12.80;11.82;;;30.10;90.60;;;;;;4990401;28;20215;-68
2022/06/12 07:41:52;;;;;;;10.50;9.90;;;30.20;91.10;;;;;;4989594;28;20255;-67
2022/06/12 07:44:21;;;;;;;7.85;7.35;;;30.70;87.70;;;;;;4989855;28;20619;-67
2022/06/12 07:46:48;;;;;;;10.98;10.38;;;31.00;88.80;;;;;;4989446;28;20628;-68
2022/06/12 07:49:15;;;;;;;15.10;14.25;;;30.80;84.60;;;;;;4994028;28;20188;-68
2022/06/12 07:51:41;;;;;;;21.38;20.20;;;30.70;82.60;;;;;;4994351;28;20188;-67
2022/06/12 07:54:07;;;;;;;12.32;11.73;;;30.50;81.80;;;;;;4992388;28;20743;-67
2022/06/12 07:56:33;;;;;;;11.02;10.32;;;30.50;85.20;;;;;;4994533;28;20195;-67
2022/06/12 07:58:59;;;;;;;8.88;8.35;;;30.60;86.90;;;;;;4993367;28;20185;-66
2022/06/12 08:01:27;;;;;;;6.88;6.47;;;30.50;84.70;;;;;;4992458;28;20191;-66
2022/06/12 08:03:53;;;;;;;11.27;10.60;;;30.50;85.60;;;;;;4993583;28;20675;-67
2022/06/12 08:06:19;;;;;;;12.30;11.73;;;30.40;81.50;;;;;;4994415;28;20187;-68
2022/06/12 08:08:45;;;;;;;7.15;6.55;;;30.40;80.90;;;;;;4992700;28;20181;-69
2022/06/12 08:11:12;;;;;;;13.38;12.32;;;30.50;86.10;;;;;;4994773;28;20227;-68
2022/06/12 08:13:39;;;;;;;15.80;14.85;;;30.90;81.20;;;;;;4993694;28;20239;-68
2022/06/12 08:16:05;;;;;;;23.98;22.70;;;31.10;83.80;;;;;;4993485;28;20215;-67
2022/06/12 08:18:31;;;;;;;29.63;28.05;;;31.40;79.40;;;;;;4992941;28;20188;-68
2022/06/12 08:21:01;;;;;;;46.38;44.10;;;31.40;79.40;;;;;;4992734;28;20216;-68
2022/06/12 08:23:38;;;;;;;40.30;38.15;;;31.50;78.50;;;;;;4993476;28;20601;-68
2022/06/12 08:26:11;;;;;;;26.15;24.83;;;31.00;74.60;;;;;;4994110;28;20211;-68
2022/06/12 08:29:07;;;;;;;10.88;9.90;;;30.50;78.30;;;;;;4992542;28;20203;-68
2022/06/12 08:31:38;;;;;;;8.18;7.45;;;30.50;81.60;;;;;;4991545;28;20223;-67
2022/06/12 08:34:10;;;;;;;9.60;8.85;;;30.80;82.30;;;;;;4993577;28;20768;-68
2022/06/12 08:36:36;;;;;;;9.80;9.30;;;31.00;81.10;;;;;;5000584;28;20180;-81
2022/06/12 08:39:04;;;;;;;9.07;8.57;;;31.10;80.40;;;;;;5005867;28;20181;-82
2022/06/12 08:41:50;;;;;;;6.80;6.25;;;30.80;78.90;;;;;;5001042;28;20180;-82
2022/06/12 08:44:27;;;;;;;6.00;5.70;;;30.50;80.60;;;;;;4997816;28;20211;-82
2022/06/12 08:47:11;;;;;;;8.85;5.68;;;30.70;80.50;;;;;;4996378;28;20234;-81
2022/06/12 08:49:50;;;;;;;9.38;8.55;;;31.20;82.10;;;;;;4996698;28;20979;-81
2022/06/12 08:52:18;;;;;;;11.73;11.13;;;31.30;75.90;;;;;;5014891;28;20184;-80
2022/06/12 08:54:55;;;;;;;14.23;13.27;;;31.20;75.40;;;;;;5008648;28;20332;-81
2022/06/12 08:57:55;;;;;;;18.02;17.00;;;31.40;74.50;;;;;;5003957;28;20192;-81
2022/06/12 09:00:24;;;;;;;8.20;7.75;;;31.50;73.40;;;;;;5000904;28;20228;-80
2022/06/12 09:02:50;;;;;;;9.30;8.80;;;31.40;76.30;;;;;;5003795;28;20196;-81
2022/06/12 09:05:21;;;;;;;7.20;6.72;;;31.50;75.30;;;;;;5002709;28;20269;-81
2022/06/12 09:08:02;;;;;;;12.38;11.77;;;31.50;74.00;;;;;;5007896;28;20185;-80
2022/06/12 09:10:44;;;;;;;16.77;15.85;;;31.90;72.10;;;;;;5006742;28;20199;-81
2022/06/12 09:13:50;;;;;;;13.20;12.50;;;32.30;72.00;;;;;;5001825;28;20212;-80
2022/06/12 09:16:16;;;;;;;10.43;9.63;;;31.70;72.70;;;;;;4977993;28;20192;-80
2022/06/12 09:19:03;;;;;;;8.50;7.88;;;31.50;73.80;;;;;;5004206;28;20184;-80
2022/06/12 09:21:42;;;;;;;6.85;6.43;;;31.30;73.10;;;;;;5007280;28;20188;-81
2022/06/12 09:24:42;;;;;;;6.70;6.28;;;31.30;74.70;;;;;;5009912;28;20724;-80
2022/06/12 09:27:13;;;;;;;5.75;5.38;;;31.50;74.10;;;;;;5007369;28;20176;-80
2022/06/12 09:30:03;;;;;;;17.13;16.25;;;31.40;74.80;;;;;;5010108;28;20235;-80
2022/06/12 09:32:41;;;;;;;13.60;12.73;;;31.60;66.70;;;;;;5010521;28;20181;-80
2022/06/12 09:35:11;;;;;;;15.15;14.20;;;32.00;69.10;;;;;;5009887;28;20212;-80
2022/06/12 09:40:33;;;;;;;12.52;11.75;;;33.30;66.30;;;;;;5012709;28;20220;-82
2022/06/12 09:43:09;;;;;;;16.77;15.82;;;33.50;66.30;;;;;;5007182;28;20180;-80
2022/06/12 09:45:56;;;;;;;17.63;16.63;;;33.00;67.90;;;;;;5003273;28;20208;-82
2022/06/12 09:48:57;;;;;;;9.25;8.48;;;32.80;67.20;;;;;;5002022;28;20172;-81
2022/06/12 09:51:38;;;;;;;7.40;6.80;;;32.80;65.00;;;;;;4989790;28;20199;-81
2022/06/12 09:54:16;;;;;;;7.72;7.10;;;33.10;65.60;;;;;;5001464;28;20275;-80
2022/06/12 09:56:54;;;;;;;10.50;9.80;;;33.80;62.60;;;;;;5000899;28;20584;-82
2022/06/12 09:59:33;;;;;;;74.60;70.95;;;33.80;60.00;;;;;;5010957;28;20220;-80
2022/06/12 10:02:05;;;;;;;92.57;87.78;;;34.10;57.90;;;;;;5003368;28;20192;-80
2022/06/12 10:04:34;;;;;;;134.35;128.02;;;34.40;58.30;;;;;;5001136;28;20214;-81
2022/06/12 10:07:09;;;;;;;150.20;142.90;;;34.40;57.90;;;;;;5003437;28;20641;-81
2022/06/12 10:09:50;;;;;;;115.40;109.78;;;34.40;57.00;;;;;;5002094;28;20180;-82
2022/06/12 10:12:32;;;;;;;145.00;138.02;;;34.70;54.10;;;;;;4999271;28;20215;-80
2022/06/12 10:15:09;;;;;;;64.15;61.00;;;35.10;54.10;;;;;;4999119;28;20303;-80
2022/06/12 10:17:51;;;;;;;46.35;43.95;;;35.30;51.10;;;;;;4998058;28;20192;-80
2022/06/12 10:20:32;;;;;;;171.98;163.35;;;34.50;51.60;;;;;;5000973;28;20216;-80
2022/06/12 10:22:59;;;;;;;171.07;162.80;;;34.60;56.30;;;;;;5011072;28;20215;-80
2022/06/12 10:25:43;;;;;;;180.30;171.57;;;35.40;55.90;;;;;;5002513;28;20311;-80
2022/06/12 10:28:14;;;;;;;214.43;203.98;;;35.40;54.40;;;;;;4999752;28;20180;-81
2022/06/12 10:30:47;;;;;;;219.52;208.55;;;35.00;54.90;;;;;;5000757;28;20188;-81
2022/06/12 10:33:18;;;;;;;144.90;137.85;;;33.90;56.30;;;;;;5034194;23;20234;-79
2022/06/12 10:36:06;;;;;;;186.30;177.40;;;33.70;56.40;;;;;;5057516;28;20178;-79
2022/06/12 10:38:35;;;;;;;145.88;138.88;;;33.80;57.80;;;;;;5052911;28;20198;-79
2022/06/12 10:41:06;;;;;;;160.48;152.77;;;34.10;56.50;;;;;;5055043;28;20213;-80
2022/06/12 10:43:42;;;;;;;208.85;198.30;;;34.90;55.50;;;;;;5051036;28;20226;-78
2022/06/12 10:46:14;;;;;;;57.80;54.97;;;35.50;54.00;;;;;;5036565;28;20187;-80
2022/06/12 10:48:42;;;;;;;61.28;58.30;;;35.70;49.00;;;;;;5034064;28;20526;-79
2022/06/12 10:51:14;;;;;;;49.17;46.65;;;35.80;51.00;;;;;;5034250;28;20729;-79
2022/06/12 10:53:40;;;;;;;65.97;62.78;;;35.90;50.50;;;;;;5022859;28;20199;-79
2022/06/12 10:56:12;;;;;;;80.05;75.95;;;36.20;48.00;;;;;;5016775;28;20278;-79
2022/06/12 10:59:03;;;;;;;69.40;65.97;;;36.50;47.00;;;;;;5030354;28;20250;-79
2022/06/12 11:01:38;;;;;;;92.95;88.07;;;36.00;46.50;;;;;;5011220;28;20249;-78
2022/06/12 11:04:15;;;;;;;64.25;61.13;;;35.90;47.90;;;;;;5027869;28;20202;-79
2022/06/12 11:06:52;;;;;;;77.97;74.10;;;36.10;50.20;;;;;;5035718;28;20178;-80
2022/06/12 11:09:47;;;;;;;66.65;63.28;;;36.60;50.70;;;;;;5040201;28;20191;-81
2022/06/12 11:12:33;;;;;;;40.20;38.20;;;36.30;51.60;;;;;;5031481;28;20254;-81
2022/06/12 11:15:20;;;;;;;70.53;67.00;;;35.20;52.60;;;;;;5037762;28;20644;-82
2022/06/12 11:17:58;;;;;;;59.85;56.75;;;34.80;54.90;;;;;;5032254;28;20545;-81
2022/06/12 11:20:34;;;;;;;55.83;53.03;;;35.20;53.00;;;;;;5038773;28;20214;-81
2022/06/12 11:23:35;;;;;;;60.97;57.92;;;35.90;52.30;;;;;;5040654;28;20194;-81
2022/06/12 11:26:22;;;;;;;66.03;62.70;;;35.60;53.40;;;;;;5041076;28;20179;-80
2022/06/12 11:28:56;;;;;;;67.78;64.38;;;36.40;49.00;;;;;;5042872;28;20199;-81
2022/06/12 11:31:45;;;;;;;61.53;58.45;;;37.30;48.20;;;;;;5043105;28;20197;-81
2022/06/12 11:34:31;;;;;;;57.55;54.75;;;36.30;49.00;;;;;;5022823;28;20247;-79
2022/06/12 11:37:17;;;;;;;89.60;85.18;;;35.80;50.10;;;;;;5023989;28;20191;-80
2022/06/12 11:40:00;;;;;;;123.60;117.55;;;35.20;50.20;;;;;;5027877;28;20587;-80
2022/06/12 11:42:57;;;;;;;89.32;84.95;;;34.40;49.20;;;;;;5025360;28;20201;-80
2022/06/12 11:45:40;;;;;;;96.18;91.57;;;34.70;49.50;;;;;;5045335;28;20198;-79
2022/06/12 11:48:15;;;;;;;116.18;110.53;;;35.10;47.70;;;;;;5040459;28;20186;-79
2022/06/12 11:51:03;;;;;;;99.47;94.57;;;35.60;46.80;;;;;;5039493;28;20267;-80
2022/06/12 11:53:43;;;;;;;117.97;111.85;;;35.60;48.50;;;;;;5040499;28;20286;-81
2022/06/12 11:56:27;;;;;;;48.90;46.58;;;36.30;47.80;;;;;;5043289;28;20185;-79
2022/06/12 11:58:56;;;;;;;18.65;17.42;;;37.20;46.10;;;;;;5040891;28;20233;-79
2022/06/12 12:01:50;;;;;;;3.70;3.60;;;37.90;46.20;;;;;;5025884;28;20210;-78
2022/06/12 12:04:44;;;;;;;3.95;3.50;;;38.00;44.60;;;;;;5027193;28;20520;-80
2022/06/12 12:07:30;;;;;;;4.20;4.00;;;38.10;44.40;;;;;;5025599;28;20226;-79
2022/06/12 12:10:39;;;;;;;4.03;3.72;;;38.50;43.60;;;;;;5043042;28;20210;-77
2022/06/12 12:13:11;;;;;;;4.38;4.07;;;39.00;43.80;;;;;;5054910;28;20206;-77
2022/06/12 12:15:48;;;;;;;7.30;3.67;;;38.10;42.10;;;;;;5050578;28;20225;-81
2022/06/12 12:18:31;;;;;;;3.60;3.30;;;38.10;43.00;;;;;;5048217;28;20186;-79
2022/06/12 12:21:00;;;;;;;3.25;3.05;;;38.40;43.00;;;;;;5034898;28;20230;-77
2022/06/12 12:23:29;;;;;;;3.60;3.40;;;38.30;41.90;;;;;;5037727;28;20267;-79
2022/06/12 12:26:14;;;;;;;8.55;4.10;;;38.30;41.60;;;;;;5028850;28;20188;-83
2022/06/12 12:28:45;;;;;;;3.58;3.33;;;38.50;42.00;;;;;;5023090;28;20183;-83
2022/06/12 12:31:13;;;;;;;4.25;3.95;;;39.10;42.10;;;;;;5041584;28;20241;-81
2022/06/12 12:33:43;;;;;;;3.65;3.35;;;39.70;41.90;;;;;;5044084;28;20226;-80
2022/06/12 12:41:49;;;;;;;3.30;3.10;;;39.80;40.60;;;;;;5038332;28;20179;-80
2022/06/12 12:44:34;;;;;;;3.90;3.60;;;39.20;40.90;;;;;;5036602;28;20199;-79
2022/06/12 12:47:01;;;;;;;6.38;5.78;;;38.90;42.10;;;;;;5049608;28;20560;-81
2022/06/12 12:49:32;;;;;;;5.18;4.68;;;38.70;42.20;;;;;;5044134;28;20190;-80
2022/06/12 12:52:06;;;;;;;4.63;4.22;;;39.20;40.80;;;;;;5024138;28;20215;-81
2022/06/12 12:54:46;;;;;;;4.32;3.95;;;39.70;38.60;;;;;;5024101;28;20214;-83
2022/06/12 12:57:15;;;;;;;4.32;3.97;;;39.80;38.50;;;;;;5021604;28;20190;-80
2022/06/12 12:59:48;;;;;;;3.70;3.42;;;39.80;38.90;;;;;;5030466;28;20195;-79
2022/06/12 13:02:21;;;;;;;3.47;3.28;;;40.20;39.40;;;;;;5044279;28;20665;-80
2022/06/12 13:04:47;;;;;;;3.63;3.35;;;39.90;40.10;;;;;;5037941;28;20694;-82
2022/06/12 13:07:41;;;;;;;3.38;3.17;;;39.90;39.40;;;;;;5036391;28;20182;-78
2022/06/12 13:10:26;;;;;;;3.17;2.97;;;40.30;39.00;;;;;;5031403;28;20210;-79
2022/06/12 13:13:18;;;;;;;3.65;3.45;;;39.10;39.20;;;;;;5024165;28;20229;-80
2022/06/12 13:16:05;;;;;;;4.78;4.47;;;38.30;40.50;;;;;;5023168;28;20203;-77
2022/06/12 13:18:44;;;;;;;4.53;4.22;;;38.80;41.30;;;;;;5022928;28;20633;-79
2022/06/12 13:21:37;;;;;;;5.20;4.60;;;37.60;41.90;;;;;;5038793;28;20694;-77
2022/06/12 13:24:27;;;;;;;3.97;3.78;;;35.60;45.20;;;;;;5043438;28;20226;-79
2022/06/12 13:26:54;;;;;;;7.50;6.93;;;34.80;45.60;;;;;;5042177;28;20576;-78